sensor_id;sensor_type;location;lat;lon;timestamp;P1;durP1;ratioP1;P2;durP2;ratioP2
70313;SDS011;71040;47.526;18.986;2023-11-19T00:04:11;3.40;;;1.70;;
70313;SDS011;71040;47.526;18.986;2023-11-19T00:09:14;2.60;;;1.95;;
70313;SDS011;71040;47.526;18.986;2023-11-19T00:14:16;2.97;;;1.80;;
70313;SDS011;71040;47.526;18.986;2023-11-19T00:19:25;3.38;;;2.22;;
70313;SDS011;71040;47.526;18.986;2023-11-19T00:24:28;3.13;;;1.75;;
70313;SDS011;71040;47.526;18.986;2023-11-19T00:29:32;3.35;;;2.00;;
70313;SDS011;71040;47.526;18.986;2023-11-19T00:34:32;4.00;;;1.80;;
70313;SDS011;71040;47.526;18.986;2023-11-19T00:39:32;3.23;;;1.87;;
70313;SDS011;71040;47.526;18.986;2023-11-19T00:44:36;3.00;;;2.15;;
70313;SDS011;71040;47.526;18.986;2023-11-19T00:49:36;2.20;;;1.33;;
70313;SDS011;71040;47.526;18.986;2023-11-19T00:54:36;2.30;;;1.67;;
70313;SDS011;71040;47.526;18.986;2023-11-19T00:59:37;2.80;;;2.00;;
70313;SDS011;71040;47.526;18.986;2023-11-19T01:04:38;3.75;;;2.17;;
70313;SDS011;71040;47.526;18.986;2023-11-19T01:09:38;2.63;;;1.83;;
70313;SDS011;71040;47.526;18.986;2023-11-19T01:14:45;2.95;;;2.22;;
70313;SDS011;71040;47.526;18.986;2023-11-19T01:19:48;4.18;;;2.20;;
70313;SDS011;71040;47.526;18.986;2023-11-19T01:24:50;2.97;;;1.60;;
70313;SDS011;71040;47.526;18.986;2023-11-19T01:29:52;2.40;;;1.65;;
70313;SDS011;71040;47.526;18.986;2023-11-19T01:34:52;2.30;;;1.43;;
70313;SDS011;71040;47.526;18.986;2023-11-19T01:39:52;3.37;;;1.80;;
70313;SDS011;71040;47.526;18.986;2023-11-19T01:44:59;1.70;;;1.20;;
70313;SDS011;71040;47.526;18.986;2023-11-19T01:50:02;2.47;;;1.25;;
70313;SDS011;71040;47.526;18.986;2023-11-19T01:55:09;3.15;;;1.73;;
70313;SDS011;71040;47.526;18.986;2023-11-19T02:00:11;2.10;;;1.40;;
70313;SDS011;71040;47.526;18.986;2023-11-19T02:05:16;2.42;;;1.85;;
70313;SDS011;71040;47.526;18.986;2023-11-19T02:10:17;2.58;;;1.77;;
70313;SDS011;71040;47.526;18.986;2023-11-19T02:15:19;2.45;;;1.80;;
70313;SDS011;71040;47.526;18.986;2023-11-19T02:20:20;2.92;;;1.70;;
70313;SDS011;71040;47.526;18.986;2023-11-19T02:25:25;2.83;;;1.75;;
70313;SDS011;71040;47.526;18.986;2023-11-19T02:30:30;2.90;;;1.75;;
70313;SDS011;71040;47.526;18.986;2023-11-19T02:35:32;3.60;;;1.98;;
70313;SDS011;71040;47.526;18.986;2023-11-19T02:40:33;2.97;;;1.88;;
70313;SDS011;71040;47.526;18.986;2023-11-19T02:45:34;2.47;;;1.53;;
70313;SDS011;71040;47.526;18.986;2023-11-19T02:50:34;2.95;;;1.75;;
70313;SDS011;71040;47.526;18.986;2023-11-19T02:55:41;2.28;;;1.23;;
70313;SDS011;71040;47.526;18.986;2023-11-19T03:00:48;2.63;;;1.35;;
70313;SDS011;71040;47.526;18.986;2023-11-19T03:05:54;2.67;;;1.75;;
70313;SDS011;71040;47.526;18.986;2023-11-19T03:10:55;2.53;;;1.70;;
70313;SDS011;71040;47.526;18.986;2023-11-19T03:15:55;3.03;;;1.63;;
70313;SDS011;71040;47.526;18.986;2023-11-19T03:20:56;2.00;;;1.30;;
70313;SDS011;71040;47.526;18.986;2023-11-19T03:25:57;2.63;;;1.42;;
70313;SDS011;71040;47.526;18.986;2023-11-19T03:31:04;2.80;;;1.70;;
70313;SDS011;71040;47.526;18.986;2023-11-19T03:36:08;2.08;;;1.60;;
70313;SDS011;71040;47.526;18.986;2023-11-19T03:41:12;2.55;;;1.50;;
70313;SDS011;71040;47.526;18.986;2023-11-19T03:46:20;2.72;;;1.55;;
70313;SDS011;71040;47.526;18.986;2023-11-19T03:51:20;1.73;;;1.17;;
70313;SDS011;71040;47.526;18.986;2023-11-19T03:56:21;1.63;;;1.10;;
70313;SDS011;71040;47.526;18.986;2023-11-19T04:01:21;2.20;;;1.40;;
70313;SDS011;71040;47.526;18.986;2023-11-19T04:06:21;1.93;;;1.27;;
70313;SDS011;71040;47.526;18.986;2023-11-19T04:11:22;2.63;;;1.30;;
70313;SDS011;71040;47.526;18.986;2023-11-19T04:16:27;3.40;;;1.38;;
70313;SDS011;71040;47.526;18.986;2023-11-19T04:21:30;1.80;;;1.10;;
70313;SDS011;71040;47.526;18.986;2023-11-19T04:26:30;1.93;;;1.40;;
70313;SDS011;71040;47.526;18.986;2023-11-19T04:31:31;2.10;;;1.30;;
70313;SDS011;71040;47.526;18.986;2023-11-19T04:36:32;1.93;;;1.30;;
70313;SDS011;71040;47.526;18.986;2023-11-19T04:41:33;2.58;;;1.27;;
70313;SDS011;71040;47.526;18.986;2023-11-19T04:46:36;1.85;;;1.25;;
70313;SDS011;71040;47.526;18.986;2023-11-19T04:51:44;2.30;;;1.38;;
70313;SDS011;71040;47.526;18.986;2023-11-19T04:56:48;1.90;;;1.00;;
70313;SDS011;71040;47.526;18.986;2023-11-19T05:01:48;1.75;;;1.27;;
70313;SDS011;71040;47.526;18.986;2023-11-19T05:06:49;2.40;;;1.53;;
70313;SDS011;71040;47.526;18.986;2023-11-19T05:11:49;1.93;;;1.13;;
70313;SDS011;71040;47.526;18.986;2023-11-19T05:16:49;2.37;;;1.17;;
70313;SDS011;71040;47.526;18.986;2023-11-19T05:21:50;1.57;;;1.03;;
70313;SDS011;71040;47.526;18.986;2023-11-19T05:26:52;2.00;;;1.23;;
70313;SDS011;71040;47.526;18.986;2023-11-19T05:31:52;1.73;;;1.10;;
70313;SDS011;71040;47.526;18.986;2023-11-19T05:36:55;2.05;;;1.58;;
70313;SDS011;71040;47.526;18.986;2023-11-19T05:41:55;1.97;;;1.33;;
70313;SDS011;71040;47.526;18.986;2023-11-19T05:46:56;2.13;;;1.20;;
70313;SDS011;71040;47.526;18.986;2023-11-19T05:51:56;2.08;;;1.58;;
70313;SDS011;71040;47.526;18.986;2023-11-19T05:56:57;2.05;;;1.42;;
70313;SDS011;71040;47.526;18.986;2023-11-19T06:01:57;2.60;;;1.70;;
70313;SDS011;71040;47.526;18.986;2023-11-19T06:06:58;2.67;;;1.60;;
70313;SDS011;71040;47.526;18.986;2023-11-19T06:12:01;2.13;;;1.40;;
70313;SDS011;71040;47.526;18.986;2023-11-19T06:17:06;1.73;;;1.30;;
70313;SDS011;71040;47.526;18.986;2023-11-19T06:22:08;2.40;;;1.40;;
70313;SDS011;71040;47.526;18.986;2023-11-19T06:27:08;2.63;;;1.38;;
70313;SDS011;71040;47.526;18.986;2023-11-19T06:32:11;1.85;;;1.60;;
70313;SDS011;71040;47.526;18.986;2023-11-19T06:37:14;3.80;;;1.75;;
70313;SDS011;71040;47.526;18.986;2023-11-19T06:42:14;2.30;;;1.40;;
70313;SDS011;71040;47.526;18.986;2023-11-19T06:47:15;1.90;;;1.63;;
70313;SDS011;71040;47.526;18.986;2023-11-19T06:52:16;2.90;;;1.90;;
70313;SDS011;71040;47.526;18.986;2023-11-19T06:57:16;2.88;;;2.20;;
70313;SDS011;71040;47.526;18.986;2023-11-19T07:02:17;2.65;;;1.80;;
70313;SDS011;71040;47.526;18.986;2023-11-19T07:07:19;2.97;;;2.42;;
70313;SDS011;71040;47.526;18.986;2023-11-19T07:12:20;3.07;;;2.37;;
70313;SDS011;71040;47.526;18.986;2023-11-19T07:17:20;4.50;;;2.40;;
70313;SDS011;71040;47.526;18.986;2023-11-19T07:22:20;3.10;;;2.37;;
70313;SDS011;71040;47.526;18.986;2023-11-19T07:27:21;2.57;;;2.10;;
70313;SDS011;71040;47.526;18.986;2023-11-19T07:32:24;2.45;;;2.15;;
70313;SDS011;71040;47.526;18.986;2023-11-19T07:37:26;3.95;;;2.60;;
70313;SDS011;71040;47.526;18.986;2023-11-19T07:42:27;3.33;;;2.25;;
70313;SDS011;71040;47.526;18.986;2023-11-19T07:47:27;3.00;;;2.00;;
70313;SDS011;71040;47.526;18.986;2023-11-19T07:52:28;3.28;;;2.55;;
70313;SDS011;71040;47.526;18.986;2023-11-19T07:57:29;2.63;;;1.97;;
70313;SDS011;71040;47.526;18.986;2023-11-19T08:02:42;3.85;;;2.28;;
70313;SDS011;71040;47.526;18.986;2023-11-19T08:07:43;2.85;;;2.03;;
70313;SDS011;71040;47.526;18.986;2023-11-19T08:12:49;4.38;;;2.65;;
70313;SDS011;71040;47.526;18.986;2023-11-19T08:17:51;3.47;;;2.22;;
70313;SDS011;71040;47.526;18.986;2023-11-19T08:22:52;3.43;;;2.23;;
70313;SDS011;71040;47.526;18.986;2023-11-19T08:27:52;3.08;;;2.10;;
70313;SDS011;71040;47.526;18.986;2023-11-19T08:32:53;3.30;;;2.13;;
70313;SDS011;71040;47.526;18.986;2023-11-19T08:37:56;3.75;;;2.45;;
70313;SDS011;71040;47.526;18.986;2023-11-19T08:42:57;2.58;;;2.30;;
70313;SDS011;71040;47.526;18.986;2023-11-19T08:47:57;3.27;;;2.50;;
70313;SDS011;71040;47.526;18.986;2023-11-19T08:52:58;3.00;;;2.20;;
70313;SDS011;71040;47.526;18.986;2023-11-19T08:58:00;3.47;;;2.40;;
70313;SDS011;71040;47.526;18.986;2023-11-19T09:03:02;3.72;;;2.53;;
70313;SDS011;71040;47.526;18.986;2023-11-19T09:08:03;2.53;;;2.08;;
70313;SDS011;71040;47.526;18.986;2023-11-19T09:13:05;3.97;;;2.40;;
70313;SDS011;71040;47.526;18.986;2023-11-19T09:18:08;3.13;;;2.15;;
70313;SDS011;71040;47.526;18.986;2023-11-19T09:23:08;3.00;;;2.23;;
70313;SDS011;71040;47.526;18.986;2023-11-19T09:28:09;3.00;;;2.17;;
70313;SDS011;71040;47.526;18.986;2023-11-19T09:33:12;3.58;;;2.40;;
70313;SDS011;71040;47.526;18.986;2023-11-19T09:38:12;3.17;;;2.20;;
70313;SDS011;71040;47.526;18.986;2023-11-19T09:43:15;2.78;;;1.85;;
70313;SDS011;71040;47.526;18.986;2023-11-19T09:48:17;3.58;;;2.20;;
70313;SDS011;71040;47.526;18.986;2023-11-19T09:53:18;2.70;;;1.83;;
70313;SDS011;71040;47.526;18.986;2023-11-19T09:58:20;2.63;;;1.90;;
70313;SDS011;71040;47.526;18.986;2023-11-19T10:03:20;3.17;;;2.10;;
70313;SDS011;71040;47.526;18.986;2023-11-19T10:08:23;2.83;;;2.00;;
70313;SDS011;71040;47.526;18.986;2023-11-19T10:13:26;2.83;;;2.10;;
70313;SDS011;71040;47.526;18.986;2023-11-19T10:18:30;3.00;;;1.90;;
70313;SDS011;71040;47.526;18.986;2023-11-19T10:23:50;2.93;;;1.77;;
70313;SDS011;71040;47.526;18.986;2023-11-19T10:28:55;1.90;;;1.30;;
70313;SDS011;71040;47.526;18.986;2023-11-19T10:33:56;2.50;;;1.65;;
70313;SDS011;71040;47.526;18.986;2023-11-19T10:38:57;1.83;;;1.33;;
70313;SDS011;71040;47.526;18.986;2023-11-19T10:44:01;2.38;;;1.58;;
70313;SDS011;71040;47.526;18.986;2023-11-19T10:49:01;1.65;;;1.48;;
70313;SDS011;71040;47.526;18.986;2023-11-19T10:54:02;2.00;;;1.40;;
70313;SDS011;71040;47.526;18.986;2023-11-19T10:59:07;2.45;;;1.45;;
70313;SDS011;71040;47.526;18.986;2023-11-19T11:04:14;2.38;;;1.42;;
70313;SDS011;71040;47.526;18.986;2023-11-19T11:09:17;2.28;;;1.50;;
70313;SDS011;71040;47.526;18.986;2023-11-19T11:14:18;13.20;;;8.43;;
70313;SDS011;71040;47.526;18.986;2023-11-19T11:19:21;13.93;;;9.15;;
70313;SDS011;71040;47.526;18.986;2023-11-19T11:30:11;74.00;;;14.50;;
70313;SDS011;71040;47.526;18.986;2023-11-19T11:40:32;51.25;;;9.43;;
70313;SDS011;71040;47.526;18.986;2023-11-19T11:45:37;25.90;;;8.25;;
70313;SDS011;71040;47.526;18.986;2023-11-19T11:50:52;25.70;;;8.07;;
70313;SDS011;71040;47.526;18.986;2023-11-19T11:55:54;24.13;;;7.93;;
70313;SDS011;71040;47.526;18.986;2023-11-19T12:00:57;28.08;;;8.40;;
70313;SDS011;71040;47.526;18.986;2023-11-19T12:05:59;21.20;;;6.75;;
70313;SDS011;71040;47.526;18.986;2023-11-19T12:11:00;15.60;;;6.53;;
70313;SDS011;71040;47.526;18.986;2023-11-19T12:21:01;14.37;;;5.90;;
70313;SDS011;71040;47.526;18.986;2023-11-19T12:26:02;13.55;;;6.22;;
70313;SDS011;71040;47.526;18.986;2023-11-19T12:31:09;12.05;;;5.53;;
70313;SDS011;71040;47.526;18.986;2023-11-19T12:36:10;11.07;;;6.00;;
70313;SDS011;71040;47.526;18.986;2023-11-19T12:41:10;13.83;;;5.87;;
70313;SDS011;71040;47.526;18.986;2023-11-19T12:46:18;11.75;;;5.57;;
70313;SDS011;71040;47.526;18.986;2023-11-19T12:51:19;14.52;;;5.50;;
70313;SDS011;71040;47.526;18.986;2023-11-19T12:56:22;12.23;;;5.78;;
70313;SDS011;71040;47.526;18.986;2023-11-19T13:01:29;11.15;;;5.90;;
70313;SDS011;71040;47.526;18.986;2023-11-19T13:06:30;13.30;;;5.47;;
70313;SDS011;71040;47.526;18.986;2023-11-19T13:11:33;11.15;;;5.57;;
70313;SDS011;71040;47.526;18.986;2023-11-19T13:16:40;9.32;;;5.13;;
70313;SDS011;71040;47.526;18.986;2023-11-19T13:21:42;7.30;;;4.75;;
70313;SDS011;71040;47.526;18.986;2023-11-19T13:26:43;8.10;;;4.78;;
70313;SDS011;71040;47.526;18.986;2023-11-19T13:31:43;9.00;;;4.90;;
70313;SDS011;71040;47.526;18.986;2023-11-19T13:36:46;9.43;;;4.82;;
70313;SDS011;71040;47.526;18.986;2023-11-19T13:41:53;8.77;;;4.55;;
70313;SDS011;71040;47.526;18.986;2023-11-19T13:46:54;6.45;;;4.38;;
70313;SDS011;71040;47.526;18.986;2023-11-19T13:51:54;7.90;;;4.60;;
70313;SDS011;71040;47.526;18.986;2023-11-19T13:56:55;8.03;;;4.77;;
70313;SDS011;71040;47.526;18.986;2023-11-19T14:01:57;7.97;;;3.83;;
70313;SDS011;71040;47.526;18.986;2023-11-19T14:06:58;7.05;;;4.22;;
70313;SDS011;71040;47.526;18.986;2023-11-19T14:11:58;6.20;;;3.80;;
70313;SDS011;71040;47.526;18.986;2023-11-19T14:16:59;8.10;;;4.33;;
70313;SDS011;71040;47.526;18.986;2023-11-19T14:21:59;7.23;;;4.17;;
70313;SDS011;71040;47.526;18.986;2023-11-19T14:27:00;6.32;;;4.55;;
70313;SDS011;71040;47.526;18.986;2023-11-19T14:32:02;5.85;;;4.10;;
70313;SDS011;71040;47.526;18.986;2023-11-19T14:37:03;6.43;;;3.85;;
70313;SDS011;71040;47.526;18.986;2023-11-19T14:42:04;6.28;;;4.18;;
70313;SDS011;71040;47.526;18.986;2023-11-19T14:47:08;5.75;;;3.67;;
70313;SDS011;71040;47.526;18.986;2023-11-19T14:52:10;6.22;;;3.67;;
70313;SDS011;71040;47.526;18.986;2023-11-19T14:57:11;5.75;;;3.92;;
70313;SDS011;71040;47.526;18.986;2023-11-19T15:02:11;6.65;;;4.03;;
70313;SDS011;71040;47.526;18.986;2023-11-19T15:07:11;5.10;;;3.60;;
70313;SDS011;71040;47.526;18.986;2023-11-19T15:12:12;7.33;;;4.30;;
70313;SDS011;71040;47.526;18.986;2023-11-19T15:17:12;6.13;;;3.97;;
70313;SDS011;71040;47.526;18.986;2023-11-19T15:22:13;6.05;;;3.83;;
70313;SDS011;71040;47.526;18.986;2023-11-19T15:27:13;5.87;;;3.60;;
70313;SDS011;71040;47.526;18.986;2023-11-19T15:32:14;5.35;;;4.03;;
70313;SDS011;71040;47.526;18.986;2023-11-19T15:37:14;6.10;;;4.05;;
70313;SDS011;71040;47.526;18.986;2023-11-19T15:42:15;6.13;;;3.85;;
70313;SDS011;71040;47.526;18.986;2023-11-19T15:47:15;6.10;;;4.03;;
70313;SDS011;71040;47.526;18.986;2023-11-19T15:52:16;6.07;;;3.50;;
70313;SDS011;71040;47.526;18.986;2023-11-19T15:57:16;5.17;;;3.70;;
70313;SDS011;71040;47.526;18.986;2023-11-19T16:02:17;6.20;;;4.35;;
70313;SDS011;71040;47.526;18.986;2023-11-19T16:07:17;6.57;;;3.97;;
70313;SDS011;71040;47.526;18.986;2023-11-19T16:12:21;7.10;;;4.03;;
70313;SDS011;71040;47.526;18.986;2023-11-19T16:17:22;5.18;;;3.80;;
70313;SDS011;71040;47.526;18.986;2023-11-19T16:22:23;6.50;;;4.05;;
70313;SDS011;71040;47.526;18.986;2023-11-19T16:27:25;6.18;;;3.88;;
70313;SDS011;71040;47.526;18.986;2023-11-19T16:32:25;5.85;;;4.35;;
70313;SDS011;71040;47.526;18.986;2023-11-19T16:37:26;4.93;;;3.47;;
70313;SDS011;71040;47.526;18.986;2023-11-19T16:42:26;5.27;;;3.83;;
70313;SDS011;71040;47.526;18.986;2023-11-19T16:47:27;5.03;;;3.63;;
70313;SDS011;71040;47.526;18.986;2023-11-19T16:52:27;5.40;;;3.37;;
70313;SDS011;71040;47.526;18.986;2023-11-19T16:57:30;5.43;;;3.22;;
70313;SDS011;71040;47.526;18.986;2023-11-19T17:02:39;4.47;;;3.45;;
70313;SDS011;71040;47.526;18.986;2023-11-19T17:07:49;5.07;;;3.83;;
70313;SDS011;71040;47.526;18.986;2023-11-19T17:12:50;4.47;;;2.97;;
70313;SDS011;71040;47.526;18.986;2023-11-19T17:17:51;5.45;;;3.50;;
70313;SDS011;71040;47.526;18.986;2023-11-19T17:22:51;4.57;;;3.37;;
70313;SDS011;71040;47.526;18.986;2023-11-19T17:27:54;5.45;;;3.35;;
70313;SDS011;71040;47.526;18.986;2023-11-19T17:32:55;4.63;;;3.17;;
70313;SDS011;71040;47.526;18.986;2023-11-19T17:37:55;4.93;;;3.10;;
70313;SDS011;71040;47.526;18.986;2023-11-19T17:42:55;4.33;;;2.93;;
70313;SDS011;71040;47.526;18.986;2023-11-19T17:47:56;4.87;;;3.30;;
70313;SDS011;71040;47.526;18.986;2023-11-19T17:52:56;5.83;;;3.43;;
70313;SDS011;71040;47.526;18.986;2023-11-19T17:57:56;4.97;;;3.20;;
70313;SDS011;71040;47.526;18.986;2023-11-19T18:03:03;5.00;;;3.37;;
70313;SDS011;71040;47.526;18.986;2023-11-19T18:08:04;5.13;;;3.17;;
70313;SDS011;71040;47.526;18.986;2023-11-19T18:13:05;4.78;;;3.20;;
70313;SDS011;71040;47.526;18.986;2023-11-19T18:18:07;4.22;;;3.05;;
70313;SDS011;71040;47.526;18.986;2023-11-19T18:23:09;4.15;;;2.97;;
70313;SDS011;71040;47.526;18.986;2023-11-19T18:28:09;5.17;;;3.20;;
70313;SDS011;71040;47.526;18.986;2023-11-19T18:33:13;3.95;;;2.90;;
70313;SDS011;71040;47.526;18.986;2023-11-19T18:38:13;5.90;;;3.50;;
70313;SDS011;71040;47.526;18.986;2023-11-19T18:43:14;4.32;;;3.00;;
70313;SDS011;71040;47.526;18.986;2023-11-19T18:48:14;4.70;;;3.07;;
70313;SDS011;71040;47.526;18.986;2023-11-19T18:53:15;3.58;;;2.53;;
70313;SDS011;71040;47.526;18.986;2023-11-19T18:58:18;3.55;;;2.88;;
70313;SDS011;71040;47.526;18.986;2023-11-19T19:03:18;4.47;;;2.87;;
70313;SDS011;71040;47.526;18.986;2023-11-19T19:08:21;5.20;;;3.15;;
70313;SDS011;71040;47.526;18.986;2023-11-19T19:13:22;4.73;;;2.93;;
70313;SDS011;71040;47.526;18.986;2023-11-19T19:18:22;4.37;;;3.23;;
70313;SDS011;71040;47.526;18.986;2023-11-19T19:23:25;3.97;;;2.55;;
70313;SDS011;71040;47.526;18.986;2023-11-19T19:28:25;4.50;;;3.27;;
70313;SDS011;71040;47.526;18.986;2023-11-19T19:33:26;3.65;;;2.80;;
70313;SDS011;71040;47.526;18.986;2023-11-19T19:38:29;4.28;;;2.90;;
70313;SDS011;71040;47.526;18.986;2023-11-19T19:43:32;4.68;;;2.97;;
70313;SDS011;71040;47.526;18.986;2023-11-19T19:48:37;3.83;;;2.80;;
70313;SDS011;71040;47.526;18.986;2023-11-19T19:53:41;5.10;;;2.90;;
70313;SDS011;71040;47.526;18.986;2023-11-19T19:58:43;4.63;;;2.83;;
70313;SDS011;71040;47.526;18.986;2023-11-19T20:03:45;5.13;;;2.90;;
70313;SDS011;71040;47.526;18.986;2023-11-19T20:08:46;3.60;;;2.50;;
70313;SDS011;71040;47.526;18.986;2023-11-19T20:13:50;4.65;;;2.63;;
70313;SDS011;71040;47.526;18.986;2023-11-19T20:18:51;3.03;;;2.50;;
70313;SDS011;71040;47.526;18.986;2023-11-19T20:23:53;3.77;;;2.70;;
70313;SDS011;71040;47.526;18.986;2023-11-19T20:28:55;4.07;;;2.85;;
70313;SDS011;71040;47.526;18.986;2023-11-19T20:33:55;4.53;;;2.47;;
70313;SDS011;71040;47.526;18.986;2023-11-19T20:38:55;11.20;;;3.33;;
70313;SDS011;71040;47.526;18.986;2023-11-19T20:43:56;7.82;;;5.93;;
70313;SDS011;71040;47.526;18.986;2023-11-19T20:48:56;16.03;;;7.33;;
70313;SDS011;71040;47.526;18.986;2023-11-19T20:53:57;7.97;;;5.70;;
70313;SDS011;71040;47.526;18.986;2023-11-19T20:58:57;13.30;;;4.60;;
70313;SDS011;71040;47.526;18.986;2023-11-19T21:03:57;7.90;;;4.20;;
70313;SDS011;71040;47.526;18.986;2023-11-19T21:08:58;6.68;;;3.70;;
70313;SDS011;71040;47.526;18.986;2023-11-19T21:13:58;6.57;;;3.73;;
70313;SDS011;71040;47.526;18.986;2023-11-19T21:18:58;8.00;;;3.67;;
70313;SDS011;71040;47.526;18.986;2023-11-19T21:24:01;5.05;;;3.58;;
70313;SDS011;71040;47.526;18.986;2023-11-19T21:29:01;7.60;;;3.77;;
70313;SDS011;71040;47.526;18.986;2023-11-19T21:34:02;6.23;;;3.67;;
70313;SDS011;71040;47.526;18.986;2023-11-19T21:39:02;4.67;;;3.13;;
70313;SDS011;71040;47.526;18.986;2023-11-19T21:44:05;5.60;;;3.58;;
70313;SDS011;71040;47.526;18.986;2023-11-19T21:49:09;6.00;;;2.90;;
70313;SDS011;71040;47.526;18.986;2023-11-19T21:54:10;5.00;;;3.30;;
70313;SDS011;71040;47.526;18.986;2023-11-19T21:59:11;4.35;;;3.13;;
70313;SDS011;71040;47.526;18.986;2023-11-19T22:04:12;6.00;;;3.53;;
70313;SDS011;71040;47.526;18.986;2023-11-19T22:09:12;5.97;;;3.95;;
70313;SDS011;71040;47.526;18.986;2023-11-19T22:14:13;4.47;;;3.42;;
70313;SDS011;71040;47.526;18.986;2023-11-19T22:19:14;3.97;;;2.67;;
70313;SDS011;71040;47.526;18.986;2023-11-19T22:24:17;4.45;;;2.83;;
70313;SDS011;71040;47.526;18.986;2023-11-19T22:29:17;4.67;;;3.10;;
70313;SDS011;71040;47.526;18.986;2023-11-19T22:34:17;5.27;;;3.43;;
70313;SDS011;71040;47.526;18.986;2023-11-19T22:39:18;3.90;;;3.47;;
70313;SDS011;71040;47.526;18.986;2023-11-19T22:44:18;6.20;;;3.60;;
70313;SDS011;71040;47.526;18.986;2023-11-19T22:49:18;3.97;;;3.10;;
70313;SDS011;71040;47.526;18.986;2023-11-19T22:54:19;5.43;;;3.40;;
70313;SDS011;71040;47.526;18.986;2023-11-19T22:59:26;4.90;;;3.35;;
70313;SDS011;71040;47.526;18.986;2023-11-19T23:04:30;4.53;;;3.30;;
70313;SDS011;71040;47.526;18.986;2023-11-19T23:09:30;5.03;;;3.20;;
70313;SDS011;71040;47.526;18.986;2023-11-19T23:14:30;4.90;;;3.57;;
70313;SDS011;71040;47.526;18.986;2023-11-19T23:19:34;4.97;;;3.30;;
70313;SDS011;71040;47.526;18.986;2023-11-19T23:24:35;4.45;;;3.15;;
70313;SDS011;71040;47.526;18.986;2023-11-19T23:29:36;4.97;;;3.00;;
70313;SDS011;71040;47.526;18.986;2023-11-19T23:34:36;7.13;;;3.50;;
70313;SDS011;71040;47.526;18.986;2023-11-19T23:39:43;5.37;;;2.90;;
70313;SDS011;71040;47.526;18.986;2023-11-19T23:44:44;4.85;;;3.00;;
70313;SDS011;71040;47.526;18.986;2023-11-19T23:49:44;4.37;;;2.87;;
70313;SDS011;71040;47.526;18.986;2023-11-19T23:54:45;4.30;;;2.80;;
70313;SDS011;71040;47.526;18.986;2023-11-19T23:59:45;4.33;;;3.10;;
